Thursday, May 26, 2016
08:48 UTC
  |  Log In   |  Register Free
Airport Search:

Modesto City-Co-Harry Sham Fld Airport
(KMOD)

FAA data valid effective Mar 31 2016 - May 26 2016 (unless otherwise noted).

 
 
 
 
 
 
 
 
 
 
 
 
 
 
Current Aviation Weather for KMOD

Weather Summary


The most recent METAR observation for MOD was updated at: 12:53 UTC
METAR for KMOD is not available. Closest METAR is for KSCK
KMOD  (most recent observation was updatred at 26:07 UTC)
260753Z AUTO 36006KT 10SM CLR 16/09 A3006 RMK AO2 SLP177 T01560089 402720128

KSCK  (21.0 nm SE)   (most recent observation was updated at 26:07 UTC)
260755Z AUTO 27006KT 10SM CLR 14/09 A3007 RMK AO2 SLP183 T01390089 402720100

KMER  (23.6 nm NW)   (most recent observation was updated at 26:08 UTC)
260835Z AUTO 00000KT 10SM CLR 13/09 A3006 RMK AO1

TAF for KMOD is not available.
KSCK  (21.0 nm SE)   (most recent observation was updatred at 26:05 UTC)
260520Z 2606/2706 26012KT P6SM SKC FM261500 30007KT P6SM SKC FM270000 28011KT P6SM SKC


KMER  (23.6 nm NW)   (most recent observation was updatred at 26:05 UTC)
260520Z 2606/2706 VRB04KT P6SM SKC FM261800 32011G16KT P6SM SKC


KMCE  (29.3 nm NW)   (most recent observation was updatred at 26:05 UTC)
260520Z 2606/2706 VRB04KT P6SM SKC FM261800 32010KT P6SM SKC
GlobalAir.com is loading additional information.
 Current Weather at MOD
61.0 F° (16.1 C°)

North winds at 12.7 mph
Pressure:
30.06 in
Humidity:
63%
Wind:
North at 12.7 mph
Dew Point:
48.0 F° (8.9 C°)
Visibility:
10.00 mi
MOD NOAA Radar




Find All Airport Services Find A Hotel Find A Rental Car Find A Golf Course Find A Restaurant $100 Hamburger



Airport Weather Forecast for KMOD

Translated METAR for KMOD (0753 UTC)
METAR:
KMOD 260753Z AUTO 36006KT 10SM CLR 16/09 A3006 RMK AO2 SLP177 T01560089 402720128
Conditions at:
KMOD (Modesto City-Co-Harry Sham Fld, CA) observed 0753 UTC 26 May 2016
Temperature:
16°C (60.8°F)
Dewpoint:
9°C (48.2°F) [RH = 63.2]
Pressure:
30.06 inches Hg (1017.9 mb)
pressure at sea level is 177 in Hg
Winds:
from the N (360 degrees) at 6.9 mph (6 knots: 3.1 m/s)
Visibility:
10 mile(s)
Ceiling:
at least 12,000 feet AGL
Clouds:
Clear below 12,000 feet AGL
Remarks:
site is un-manned
site is automated and HAS a precipitation sensor

Translated TAF for KSCK (Stockton Metropolitan, CA) (0520 UTC)
TAF text:
KSCK 260520Z 2606/2706 26012KT P6SM SKC
Forecast period:
Thursday May 26 2016 06:00 UTC - Friday May 27 2016 06:00 UTC
Forecast type:
FROM: standard forecast or significant change
Winds:
from the W (260 degrees) at 13.8 mph (12 knots: 6.2 m/s)
Visibility:
6 or more mile(s) (9.7+ km)
Ceiling:
at least 12,000 feet AGL
Clouds:
Clear Skies
Weather:
no significant weather observed at this time
TAF text:
FM261500 30007KT P6SM SKC
Forecast period:
Thursday May 26 2016 15:00 UTC - Friday May 27 2016 00:00 UTC
Forecast type:
FROM: standard forecast or significant change
Winds:
from the WNW (300 degrees) at 8.1 mph (7 knots: 3.6 m/s)
Visibility:
6 or more mile(s) (9.7+ km)
Ceiling:
at least 12,000 feet AGL
Clouds:
Clear Skies
Weather:
no significant weather observed at this time
TAF text:
FM270000 28011KT P6SM SKC
Forecast period:
Friday May 27 2016 00:00 UTC - Friday May 27 2016 06:00 UTC
Forecast type:
FROM: standard forecast or significant change
Winds:
from the W (280 degrees) at 12.7 mph (11 knots: 5.7 m/s)
Visibility:
6 or more mile(s) (9.7+ km)
Ceiling:
at least 12,000 feet AGL
Clouds:
Clear Skies
Weather:
no significant weather observed at this time
FBO's on the Field
FBO Company Facility Photos Services Transportation Aviation Fuel Prices: Prices include tax
Catering Weather Repair Courtesy Rental Type 100LL JetA JetA+ MOGAS 8087
 
Sky Trek Aviation

This FBO has not yet been rated
FS:Avfuel
Last Updated: May-10
Login to update fuel prices
SS:
Contact Sky Trek AviationMore FBO Information
 
Add another FBO Facility Photos Catering Weather Repair Courtesy Rental Type 100LL JetA JetA+ MOGAS 8087
Services Transportation Aviation Fuel Prices: Prices include tax


model-print
model-print
model-print
model-print